sensor_id;sensor_type;location;lat;lon;timestamp;pressure;altitude;pressure_sealevel;temperature;humidity
27144;BME280;14672;50.250;8.312;2023-04-19T00:00:46;99630.66;;;14.41;57.97
27144;BME280;14672;50.250;8.312;2023-04-19T00:03:11;99629.84;;;14.40;57.77
27144;BME280;14672;50.250;8.312;2023-04-19T00:05:39;99633.97;;;14.39;58.27
27144;BME280;14672;50.250;8.312;2023-04-19T00:08:06;99626.66;;;14.38;58.25
27144;BME280;14672;50.250;8.312;2023-04-19T00:10:32;99626.34;;;14.36;58.47
27144;BME280;14672;50.250;8.312;2023-04-19T00:13:01;99625.63;;;14.32;58.56
27144;BME280;14672;50.250;8.312;2023-04-19T00:15:27;99620.72;;;14.33;58.44
27144;BME280;14672;50.250;8.312;2023-04-19T00:17:52;99618.22;;;14.35;58.60
27144;BME280;14672;50.250;8.312;2023-04-19T00:20:19;99618.88;;;14.39;58.46
27144;BME280;14672;50.250;8.312;2023-04-19T00:22:45;99614.41;;;14.38;58.54
27144;BME280;14672;50.250;8.312;2023-04-19T00:25:11;99618.88;;;14.39;58.59
27144;BME280;14672;50.250;8.312;2023-04-19T00:27:37;99623.59;;;14.33;58.69
27144;BME280;14672;50.250;8.312;2023-04-19T00:30:03;99619.91;;;14.32;59.13
27144;BME280;14672;50.250;8.312;2023-04-19T00:32:30;99617.53;;;14.31;58.95
27144;BME280;14672;50.250;8.312;2023-04-19T00:34:55;99618.31;;;14.31;58.99
27144;BME280;14672;50.250;8.312;2023-04-19T00:37:22;99619.13;;;14.32;58.91
27144;BME280;14672;50.250;8.312;2023-04-19T00:39:48;99618.13;;;14.26;59.33
27144;BME280;14672;50.250;8.312;2023-04-19T00:42:14;99617.66;;;14.27;58.88
27144;BME280;14672;50.250;8.312;2023-04-19T00:44:40;99616.72;;;14.30;59.09
27144;BME280;14672;50.250;8.312;2023-04-19T00:47:06;99617.19;;;14.29;58.91
27144;BME280;14672;50.250;8.312;2023-04-19T00:49:31;99618.13;;;14.26;58.82
27144;BME280;14672;50.250;8.312;2023-04-19T00:51:57;99614.59;;;14.22;59.00
27144;BME280;14672;50.250;8.312;2023-04-19T00:54:23;99613.47;;;14.19;58.94
27144;BME280;14672;50.250;8.312;2023-04-19T00:56:50;99613.94;;;14.18;58.96
27144;BME280;14672;50.250;8.312;2023-04-19T00:59:16;99611.56;;;14.16;58.93
27144;BME280;14672;50.250;8.312;2023-04-19T01:01:43;99600.25;;;14.13;59.46
27144;BME280;14672;50.250;8.312;2023-04-19T01:04:09;99603.78;;;14.17;59.17
27144;BME280;14672;50.250;8.312;2023-04-19T01:06:35;99594.06;;;14.14;59.20
27144;BME280;14672;50.250;8.312;2023-04-19T01:09:01;99593.75;;;14.12;59.09
27144;BME280;14672;50.250;8.312;2023-04-19T01:11:27;99581.50;;;14.11;59.38
27144;BME280;14672;50.250;8.312;2023-04-19T01:13:57;99584.03;;;14.09;59.33
27144;BME280;14672;50.250;8.312;2023-04-19T01:16:26;99574.47;;;14.03;59.46
27144;BME280;14672;50.250;8.312;2023-04-19T01:18:52;99581.13;;;14.00;59.51
27144;BME280;14672;50.250;8.312;2023-04-19T01:21:18;99580.72;;;13.89;59.89
27144;BME280;14672;50.250;8.312;2023-04-19T01:23:44;99579.44;;;13.90;59.69
27144;BME280;14672;50.250;8.312;2023-04-19T01:26:10;99577.22;;;13.85;59.99
27144;BME280;14672;50.250;8.312;2023-04-19T01:28:35;99584.50;;;13.86;59.89
27144;BME280;14672;50.250;8.312;2023-04-19T01:31:01;99581.97;;;13.88;59.86
27144;BME280;14672;50.250;8.312;2023-04-19T01:33:27;99578.31;;;13.88;60.25
27144;BME280;14672;50.250;8.312;2023-04-19T01:35:53;99579.50;;;13.78;60.40
27144;BME280;14672;50.250;8.312;2023-04-19T01:38:19;99573.13;;;13.74;60.57
27144;BME280;14672;50.250;8.312;2023-04-19T01:40:44;99567.88;;;13.72;60.38
27144;BME280;14672;50.250;8.312;2023-04-19T01:43:13;99572.13;;;13.68;60.67
27144;BME280;14672;50.250;8.312;2023-04-19T01:45:39;99558.66;;;13.68;60.72
27144;BME280;14672;50.250;8.312;2023-04-19T01:48:05;99565.41;;;13.61;60.61
27144;BME280;14672;50.250;8.312;2023-04-19T01:50:31;99562.34;;;13.56;60.45
27144;BME280;14672;50.250;8.312;2023-04-19T01:52:58;99563.50;;;13.46;60.96
27144;BME280;14672;50.250;8.312;2023-04-19T01:55:24;99561.59;;;13.43;60.79
27144;BME280;14672;50.250;8.312;2023-04-19T01:57:50;99557.38;;;13.35;60.56
27144;BME280;14672;50.250;8.312;2023-04-19T02:00:19;99564.69;;;13.36;60.95
27144;BME280;14672;50.250;8.312;2023-04-19T02:02:45;99547.16;;;13.25;60.21
27144;BME280;14672;50.250;8.312;2023-04-19T02:05:11;99563.84;;;13.13;60.28
27144;BME280;14672;50.250;8.312;2023-04-19T02:07:38;99562.81;;;13.20;60.88
27144;BME280;14672;50.250;8.312;2023-04-19T02:10:05;99556.75;;;13.05;60.98
27144;BME280;14672;50.250;8.312;2023-04-19T02:12:35;99559.72;;;13.02;61.11
27144;BME280;14672;50.250;8.312;2023-04-19T02:15:00;99554.81;;;13.02;61.15
27144;BME280;14672;50.250;8.312;2023-04-19T02:17:27;99545.13;;;12.87;61.23
27144;BME280;14672;50.250;8.312;2023-04-19T02:19:53;99546.38;;;12.86;61.00
27144;BME280;14672;50.250;8.312;2023-04-19T02:22:19;99548.69;;;12.79;61.45
27144;BME280;14672;50.250;8.312;2023-04-19T02:24:48;99547.09;;;12.78;61.55
27144;BME280;14672;50.250;8.312;2023-04-19T02:27:14;99547.44;;;12.67;61.31
27144;BME280;14672;50.250;8.312;2023-04-19T02:29:40;99556.56;;;12.62;62.14
27144;BME280;14672;50.250;8.312;2023-04-19T02:32:06;99551.53;;;12.66;61.77
27144;BME280;14672;50.250;8.312;2023-04-19T02:34:33;99547.00;;;12.56;62.46
27144;BME280;14672;50.250;8.312;2023-04-19T02:36:59;99543.00;;;12.53;62.10
27144;BME280;14672;50.250;8.312;2023-04-19T02:39:25;99551.09;;;12.55;62.41
27144;BME280;14672;50.250;8.312;2023-04-19T02:41:51;99548.03;;;12.49;62.81
27144;BME280;14672;50.250;8.312;2023-04-19T02:44:17;99545.38;;;12.55;63.00
27144;BME280;14672;50.250;8.312;2023-04-19T02:46:50;99545.28;;;12.46;63.23
27144;BME280;14672;50.250;8.312;2023-04-19T02:49:17;99546.53;;;12.45;63.22
27144;BME280;14672;50.250;8.312;2023-04-19T02:51:42;99550.53;;;12.47;63.22
27144;BME280;14672;50.250;8.312;2023-04-19T02:54:09;99540.84;;;12.45;62.94
27144;BME280;14672;50.250;8.312;2023-04-19T02:56:35;99533.66;;;12.40;62.95
27144;BME280;14672;50.250;8.312;2023-04-19T02:59:02;99542.22;;;12.53;63.54
27144;BME280;14672;50.250;8.312;2023-04-19T03:01:28;99539.69;;;12.55;63.20
27144;BME280;14672;50.250;8.312;2023-04-19T03:03:54;99524.19;;;12.56;63.84
27144;BME280;14672;50.250;8.312;2023-04-19T03:06:20;99533.75;;;12.62;64.26
27144;BME280;14672;50.250;8.312;2023-04-19T03:08:46;99533.31;;;12.63;64.22
27144;BME280;14672;50.250;8.312;2023-04-19T03:11:14;99530.69;;;12.69;64.17
27144;BME280;14672;50.250;8.312;2023-04-19T03:13:40;99533.41;;;12.73;64.19
27144;BME280;14672;50.250;8.312;2023-04-19T03:16:07;99534.53;;;12.75;64.28
27144;BME280;14672;50.250;8.312;2023-04-19T03:18:33;99526.47;;;12.74;64.26
27144;BME280;14672;50.250;8.312;2023-04-19T03:20:59;99528.28;;;12.80;64.43
27144;BME280;14672;50.250;8.312;2023-04-19T03:23:25;99528.16;;;12.84;64.39
27144;BME280;14672;50.250;8.312;2023-04-19T03:25:52;99523.25;;;12.84;64.73
27144;BME280;14672;50.250;8.312;2023-04-19T03:28:18;99519.84;;;12.89;64.29
27144;BME280;14672;50.250;8.312;2023-04-19T03:30:43;99515.25;;;12.92;64.14
27144;BME280;14672;50.250;8.312;2023-04-19T03:33:09;99520.25;;;13.00;64.34
27144;BME280;14672;50.250;8.312;2023-04-19T03:35:35;99520.25;;;13.00;64.26
27144;BME280;14672;50.250;8.312;2023-04-19T03:38:01;99518.53;;;13.03;64.16
27144;BME280;14672;50.250;8.312;2023-04-19T03:40:28;99506.31;;;13.02;64.29
27144;BME280;14672;50.250;8.312;2023-04-19T03:42:54;99505.41;;;13.05;64.44
27144;BME280;14672;50.250;8.312;2023-04-19T03:45:20;99503.25;;;13.09;64.73
27144;BME280;14672;50.250;8.312;2023-04-19T03:47:45;99500.75;;;13.11;64.50
27144;BME280;14672;50.250;8.312;2023-04-19T03:50:11;99498.56;;;13.15;64.52
27144;BME280;14672;50.250;8.312;2023-04-19T03:52:37;99496.06;;;13.18;64.61
27144;BME280;14672;50.250;8.312;2023-04-19T03:55:03;99500.16;;;13.16;64.39
27144;BME280;14672;50.250;8.312;2023-04-19T03:57:29;99497.06;;;13.24;64.87
27144;BME280;14672;50.250;8.312;2023-04-19T03:59:55;99492.94;;;13.25;65.22
27144;BME280;14672;50.250;8.312;2023-04-19T04:02:21;99506.50;;;13.33;64.69
27144;BME280;14672;50.250;8.312;2023-04-19T04:04:53;99502.84;;;13.33;64.75
27144;BME280;14672;50.250;8.312;2023-04-19T04:07:19;99500.97;;;13.39;64.50
27144;BME280;14672;50.250;8.312;2023-04-19T04:09:46;99505.09;;;13.38;64.68
27144;BME280;14672;50.250;8.312;2023-04-19T04:12:12;99499.28;;;13.41;64.55
27144;BME280;14672;50.250;8.312;2023-04-19T04:14:38;99511.38;;;13.45;64.66
27144;BME280;14672;50.250;8.312;2023-04-19T04:17:04;99508.38;;;13.49;64.42
27144;BME280;14672;50.250;8.312;2023-04-19T04:19:30;99514.75;;;13.53;64.07
27144;BME280;14672;50.250;8.312;2023-04-19T04:21:56;99512.56;;;13.57;64.21
27144;BME280;14672;50.250;8.312;2023-04-19T04:24:21;99502.72;;;13.58;63.80
27144;BME280;14672;50.250;8.312;2023-04-19T04:26:47;99510.50;;;13.57;63.97
27144;BME280;14672;50.250;8.312;2023-04-19T04:29:14;99517.22;;;13.63;63.96
27144;BME280;14672;50.250;8.312;2023-04-19T04:31:41;99513.91;;;13.65;63.36
27144;BME280;14672;50.250;8.312;2023-04-19T04:34:07;99509.09;;;13.62;63.56
27144;BME280;14672;50.250;8.312;2023-04-19T04:36:35;99511.75;;;13.56;63.82
27144;BME280;14672;50.250;8.312;2023-04-19T04:39:03;99518.28;;;13.57;63.63
27144;BME280;14672;50.250;8.312;2023-04-19T04:41:30;99508.78;;;13.60;63.32
27144;BME280;14672;50.250;8.312;2023-04-19T04:43:57;99524.03;;;13.66;63.27
27144;BME280;14672;50.250;8.312;2023-04-19T04:46:25;99515.47;;;13.66;63.36
27144;BME280;14672;50.250;8.312;2023-04-19T04:48:52;99515.47;;;13.66;63.21
27144;BME280;14672;50.250;8.312;2023-04-19T04:51:18;99516.28;;;13.67;63.19
27144;BME280;14672;50.250;8.312;2023-04-19T04:53:44;99510.03;;;13.59;63.34
27144;BME280;14672;50.250;8.312;2023-04-19T04:56:10;99511.72;;;13.69;63.07
27144;BME280;14672;50.250;8.312;2023-04-19T04:58:36;99510.44;;;13.70;63.00
27144;BME280;14672;50.250;8.312;2023-04-19T05:01:02;99520.28;;;13.69;63.30
27144;BME280;14672;50.250;8.312;2023-04-19T05:03:28;99507.91;;;13.72;63.28
27144;BME280;14672;50.250;8.312;2023-04-19T05:05:54;99507.38;;;13.64;63.28
27144;BME280;14672;50.250;8.312;2023-04-19T05:08:21;99509.19;;;13.71;63.07
27144;BME280;14672;50.250;8.312;2023-04-19T05:10:47;99509.84;;;13.75;63.01
27144;BME280;14672;50.250;8.312;2023-04-19T05:13:12;99508.84;;;13.69;62.97
27144;BME280;14672;50.250;8.312;2023-04-19T05:15:38;99506.84;;;13.79;62.84
27144;BME280;14672;50.250;8.312;2023-04-19T05:18:05;99506.53;;;13.77;62.87
27144;BME280;14672;50.250;8.312;2023-04-19T05:20:31;99501.28;;;13.75;63.20
27144;BME280;14672;50.250;8.312;2023-04-19T05:22:59;99508.09;;;13.78;62.78
27144;BME280;14672;50.250;8.312;2023-04-19T05:25:26;99504.13;;;13.75;62.95
27144;BME280;14672;50.250;8.312;2023-04-19T05:27:52;99501.00;;;13.82;62.55
27144;BME280;14672;50.250;8.312;2023-04-19T05:30:18;99500.53;;;13.84;62.03
27144;BME280;14672;50.250;8.312;2023-04-19T05:32:44;99491.84;;;13.87;61.89
27144;BME280;14672;50.250;8.312;2023-04-19T05:35:10;99507.38;;;13.86;61.67
27144;BME280;14672;50.250;8.312;2023-04-19T05:37:37;99495.50;;;13.88;61.59
27144;BME280;14672;50.250;8.312;2023-04-19T05:40:05;99495.66;;;13.93;61.53
27144;BME280;14672;50.250;8.312;2023-04-19T05:42:34;99496.28;;;13.88;61.57
27144;BME280;14672;50.250;8.312;2023-04-19T05:45:00;99499.16;;;13.88;61.65
27144;BME280;14672;50.250;8.312;2023-04-19T05:47:26;99495.16;;;13.86;61.67
27144;BME280;14672;50.250;8.312;2023-04-19T05:49:52;99490.75;;;13.94;60.96
27144;BME280;14672;50.250;8.312;2023-04-19T05:52:18;99498.06;;;13.95;60.89
27144;BME280;14672;50.250;8.312;2023-04-19T05:54:44;99490.09;;;13.90;61.13
27144;BME280;14672;50.250;8.312;2023-04-19T05:57:09;99484.91;;;13.97;60.62
27144;BME280;14672;50.250;8.312;2023-04-19T05:59:35;99486.84;;;14.00;60.31
27144;BME280;14672;50.250;8.312;2023-04-19T06:02:01;99486.84;;;14.00;60.06
27144;BME280;14672;50.250;8.312;2023-04-19T06:04:27;99492.88;;;14.02;60.20
27144;BME280;14672;50.250;8.312;2023-04-19T06:06:53;99488.78;;;13.82;60.34
27144;BME280;14672;50.250;8.312;2023-04-19T06:09:19;99501.59;;;13.99;59.97
27144;BME280;14672;50.250;8.312;2023-04-19T06:11:45;99484.00;;;14.00;59.80
27144;BME280;14672;50.250;8.312;2023-04-19T06:14:11;99490.34;;;14.04;59.42
27144;BME280;14672;50.250;8.312;2023-04-19T06:16:39;99492.56;;;14.00;59.28
27144;BME280;14672;50.250;8.312;2023-04-19T06:19:05;99495.00;;;14.11;59.29
27144;BME280;14672;50.250;8.312;2023-04-19T06:21:33;99487.41;;;14.17;58.89
27144;BME280;14672;50.250;8.312;2023-04-19T06:23:59;99488.81;;;14.13;58.95
27144;BME280;14672;50.250;8.312;2023-04-19T06:26:25;99483.41;;;14.15;58.59
27144;BME280;14672;50.250;8.312;2023-04-19T06:28:51;99494.91;;;14.24;58.10
27144;BME280;14672;50.250;8.312;2023-04-19T06:31:17;99495.22;;;14.26;58.07
27144;BME280;14672;50.250;8.312;2023-04-19T06:33:43;99500.56;;;14.36;57.63
27144;BME280;14672;50.250;8.312;2023-04-19T06:36:09;99493.75;;;14.43;57.54
27144;BME280;14672;50.250;8.312;2023-04-19T06:38:35;99499.50;;;14.21;56.79
27144;BME280;14672;50.250;8.312;2023-04-19T06:41:03;99501.28;;;14.28;56.65
27144;BME280;14672;50.250;8.312;2023-04-19T06:43:29;99504.13;;;14.28;56.57
27144;BME280;14672;50.250;8.312;2023-04-19T06:45:59;99505.59;;;14.32;56.65
27144;BME280;14672;50.250;8.312;2023-04-19T06:48:25;99494.31;;;14.29;56.20
27144;BME280;14672;50.250;8.312;2023-04-19T06:50:53;99500.34;;;14.31;55.99
27144;BME280;14672;50.250;8.312;2023-04-19T06:53:19;99493.25;;;14.35;55.76
27144;BME280;14672;50.250;8.312;2023-04-19T06:55:45;99500.06;;;14.38;55.94
27144;BME280;14672;50.250;8.312;2023-04-19T06:58:11;99493.66;;;14.34;55.70
27144;BME280;14672;50.250;8.312;2023-04-19T07:00:37;99495.63;;;14.37;56.14
27144;BME280;14672;50.250;8.312;2023-04-19T07:03:03;99480.84;;;14.38;56.48
27144;BME280;14672;50.250;8.312;2023-04-19T07:05:30;99484.84;;;14.41;55.34
27144;BME280;14672;50.250;8.312;2023-04-19T07:07:56;99490.28;;;14.48;54.99
27144;BME280;14672;50.250;8.312;2023-04-19T07:10:23;99486.16;;;14.49;54.95
27144;BME280;14672;50.250;8.312;2023-04-19T07:12:49;99488.03;;;14.43;54.76
27144;BME280;14672;50.250;8.312;2023-04-19T07:15:16;99492.84;;;14.55;54.97
27144;BME280;14672;50.250;8.312;2023-04-19T07:17:41;99492.16;;;14.42;54.01
27144;BME280;14672;50.250;8.312;2023-04-19T07:20:07;99485.97;;;14.43;53.61
27144;BME280;14672;50.250;8.312;2023-04-19T07:22:34;99478.19;;;14.44;53.88
27144;BME280;14672;50.250;8.312;2023-04-19T07:25:00;99484.06;;;14.40;53.62
27144;BME280;14672;50.250;8.312;2023-04-19T07:27:26;99476.28;;;14.41;53.53
27144;BME280;14672;50.250;8.312;2023-04-19T07:29:52;99477.91;;;14.51;53.45
27144;BME280;14672;50.250;8.312;2023-04-19T07:32:18;99470.28;;;14.57;53.49
27144;BME280;14672;50.250;8.312;2023-04-19T07:34:44;99456.63;;;14.52;53.36
27144;BME280;14672;50.250;8.312;2023-04-19T07:37:11;99462.19;;;14.55;53.16
27144;BME280;14672;50.250;8.312;2023-04-19T07:39:38;99460.28;;;14.52;52.77
27144;BME280;14672;50.250;8.312;2023-04-19T07:42:04;99466.97;;;14.58;52.69
27144;BME280;14672;50.250;8.312;2023-04-19T07:44:30;99468.41;;;14.63;52.79
27144;BME280;14672;50.250;8.312;2023-04-19T07:46:56;99463.97;;;14.71;52.50
27144;BME280;14672;50.250;8.312;2023-04-19T07:49:21;99462.72;;;14.72;52.35
27144;BME280;14672;50.250;8.312;2023-04-19T07:51:47;99458.28;;;14.80;52.30
27144;BME280;14672;50.250;8.312;2023-04-19T07:54:13;99462.78;;;14.99;52.25
27144;BME280;14672;50.250;8.312;2023-04-19T07:56:41;99452.59;;;15.08;52.62
27144;BME280;14672;50.250;8.312;2023-04-19T07:59:06;99456.72;;;15.07;52.57
27144;BME280;14672;50.250;8.312;2023-04-19T08:01:32;99447.69;;;15.08;52.20
27144;BME280;14672;50.250;8.312;2023-04-19T08:03:58;99447.19;;;15.19;52.35
27144;BME280;14672;50.250;8.312;2023-04-19T08:06:24;99446.41;;;15.27;52.45
27144;BME280;14672;50.250;8.312;2023-04-19T08:08:51;99443.69;;;15.33;52.35
27144;BME280;14672;50.250;8.312;2023-04-19T08:11:17;99442.09;;;15.41;51.97
27144;BME280;14672;50.250;8.312;2023-04-19T08:13:44;99437.50;;;15.43;51.28
27144;BME280;14672;50.250;8.312;2023-04-19T08:16:10;99427.81;;;15.50;50.75
27144;BME280;14672;50.250;8.312;2023-04-19T08:18:37;99435.44;;;15.53;50.54
27144;BME280;14672;50.250;8.312;2023-04-19T08:21:03;99427.81;;;15.50;50.43
27144;BME280;14672;50.250;8.312;2023-04-19T08:23:29;99429.72;;;15.53;50.31
27144;BME280;14672;50.250;8.312;2023-04-19T08:25:55;99434.16;;;15.54;50.50
27144;BME280;14672;50.250;8.312;2023-04-19T08:28:21;99429.25;;;15.36;50.44
27144;BME280;14672;50.250;8.312;2023-04-19T08:30:47;99433.53;;;15.50;50.14
27144;BME280;14672;50.250;8.312;2023-04-19T08:33:14;99443.06;;;15.65;49.67
27144;BME280;14672;50.250;8.312;2023-04-19T08:35:40;99443.72;;;15.60;49.34
27144;BME280;14672;50.250;8.312;2023-04-19T08:38:07;99439.72;;;15.67;49.44
27144;BME280;14672;50.250;8.312;2023-04-19T08:40:33;99444.66;;;15.66;49.32
27144;BME280;14672;50.250;8.312;2023-04-19T08:43:04;99445.91;;;15.65;49.19
27144;BME280;14672;50.250;8.312;2023-04-19T08:45:32;99431.94;;;15.67;49.10
27144;BME280;14672;50.250;8.312;2023-04-19T08:47:58;99436.38;;;15.68;49.17
27144;BME280;14672;50.250;8.312;2023-04-19T08:50:26;99437.94;;;15.78;49.12
27144;BME280;14672;50.250;8.312;2023-04-19T08:52:52;99433.47;;;15.86;49.84
27144;BME280;14672;50.250;8.312;2023-04-19T08:55:18;99425.50;;;15.90;48.69
27144;BME280;14672;50.250;8.312;2023-04-19T08:57:44;99432.66;;;15.95;48.87
27144;BME280;14672;50.250;8.312;2023-04-19T09:00:11;99421.13;;;16.13;48.83
27144;BME280;14672;50.250;8.312;2023-04-19T09:03:03;99410.28;;;16.17;48.75
27144;BME280;14672;50.250;8.312;2023-04-19T09:05:31;99410.69;;;16.34;48.52
27144;BME280;14672;50.250;8.312;2023-04-19T09:08:27;99418.50;;;16.33;49.54
27144;BME280;14672;50.250;8.312;2023-04-19T09:10:59;99406.81;;;16.46;48.08
27144;BME280;14672;50.250;8.312;2023-04-19T09:13:27;99413.19;;;16.41;47.29
27144;BME280;14672;50.250;8.312;2023-04-19T09:15:54;99404.53;;;16.50;47.40
27144;BME280;14672;50.250;8.312;2023-04-19T09:18:25;99406.81;;;16.46;47.15
27144;BME280;14672;50.250;8.312;2023-04-19T09:20:52;99405.59;;;16.29;46.06
27144;BME280;14672;50.250;8.312;2023-04-19T09:23:26;99390.56;;;16.43;46.27
27144;BME280;14672;50.250;8.312;2023-04-19T09:26:01;99398.25;;;16.37;46.12
27144;BME280;14672;50.250;8.312;2023-04-19T09:28:30;99397.28;;;16.40;46.41
27144;BME280;14672;50.250;8.312;2023-04-19T09:30:57;99388.94;;;16.51;46.32
27144;BME280;14672;50.250;8.312;2023-04-19T09:33:41;99391.00;;;16.51;46.82
27144;BME280;14672;50.250;8.312;2023-04-19T09:36:08;99398.00;;;16.50;46.39
27144;BME280;14672;50.250;8.312;2023-04-19T09:38:47;99387.47;;;16.56;46.46
27144;BME280;14672;50.250;8.312;2023-04-19T09:41:13;99387.56;;;16.70;46.45
27144;BME280;14672;50.250;8.312;2023-04-19T09:43:39;99387.00;;;16.81;46.17
27144;BME280;14672;50.250;8.312;2023-04-19T09:46:04;99384.63;;;16.79;45.06
27144;BME280;14672;50.250;8.312;2023-04-19T09:48:30;99385.78;;;16.73;45.54
27144;BME280;14672;50.250;8.312;2023-04-19T09:51:00;99384.69;;;16.94;45.68
27144;BME280;14672;50.250;8.312;2023-04-19T09:53:28;99383.88;;;16.94;45.42
27144;BME280;14672;50.250;8.312;2023-04-19T09:55:55;99372.75;;;17.10;45.38
27144;BME280;14672;50.250;8.312;2023-04-19T09:58:21;99380.59;;;17.24;45.73
27144;BME280;14672;50.250;8.312;2023-04-19T10:00:48;99373.97;;;17.33;45.54
27144;BME280;14672;50.250;8.312;2023-04-19T10:03:16;99378.03;;;17.41;45.28
27144;BME280;14672;50.250;8.312;2023-04-19T10:05:43;99379.25;;;17.34;45.03
27144;BME280;14672;50.250;8.312;2023-04-19T10:08:12;99380.81;;;17.35;44.99
27144;BME280;14672;50.250;8.312;2023-04-19T10:10:44;99376.38;;;17.34;43.88
27144;BME280;14672;50.250;8.312;2023-04-19T10:13:12;99370.00;;;17.30;42.94
27144;BME280;14672;50.250;8.312;2023-04-19T10:15:41;99374.97;;;17.45;43.41
27144;BME280;14672;50.250;8.312;2023-04-19T10:18:11;99365.47;;;17.38;43.30
27144;BME280;14672;50.250;8.312;2023-04-19T10:20:49;99374.78;;;17.33;43.06
27144;BME280;14672;50.250;8.312;2023-04-19T10:23:16;99375.25;;;17.32;43.13
27144;BME280;14672;50.250;8.312;2023-04-19T10:25:46;99362.69;;;17.44;42.78
27144;BME280;14672;50.250;8.312;2023-04-19T10:28:14;99371.72;;;17.52;43.24
27144;BME280;14672;50.250;8.312;2023-04-19T10:31:01;99364.97;;;17.40;42.91
27144;BME280;14672;50.250;8.312;2023-04-19T10:33:30;99361.78;;;17.23;42.80
27144;BME280;14672;50.250;8.312;2023-04-19T10:35:59;99363.56;;;17.21;42.86
27144;BME280;14672;50.250;8.312;2023-04-19T10:38:48;99366.22;;;17.24;43.53
27144;BME280;14672;50.250;8.312;2023-04-19T10:41:19;99364.69;;;17.53;44.17
27144;BME280;14672;50.250;8.312;2023-04-19T10:49:13;99354.00;;;17.97;42.44
27144;BME280;14672;50.250;8.312;2023-04-19T10:51:39;99347.94;;;18.10;41.96
27144;BME280;14672;50.250;8.312;2023-04-19T10:54:34;99336.25;;;18.34;41.60
27144;BME280;14672;50.250;8.312;2023-04-19T10:57:05;99328.66;;;18.51;41.53
27144;BME280;14672;50.250;8.312;2023-04-19T10:59:33;99332.00;;;18.64;42.24
27144;BME280;14672;50.250;8.312;2023-04-19T11:04:57;99322.41;;;18.93;40.76
27144;BME280;14672;50.250;8.312;2023-04-19T11:07:23;99322.66;;;18.89;39.85
27144;BME280;14672;50.250;8.312;2023-04-19T11:09:49;99319.16;;;19.05;39.89
27144;BME280;14672;50.250;8.312;2023-04-19T11:12:19;99312.28;;;18.97;39.49
27144;BME280;14672;50.250;8.312;2023-04-19T11:14:50;99310.16;;;19.18;39.85
27144;BME280;14672;50.250;8.312;2023-04-19T11:17:22;99306.06;;;19.04;40.34
27144;BME280;14672;50.250;8.312;2023-04-19T11:20:08;99308.22;;;19.09;40.25
27144;BME280;14672;50.250;8.312;2023-04-19T11:25:27;99294.59;;;19.36;39.45
27144;BME280;14672;50.250;8.312;2023-04-19T11:27:56;99291.72;;;19.10;39.64
27144;BME280;14672;50.250;8.312;2023-04-19T11:30:28;99302.69;;;19.06;38.98
27144;BME280;14672;50.250;8.312;2023-04-19T11:32:55;99293.44;;;19.22;38.49
27144;BME280;14672;50.250;8.312;2023-04-19T11:35:27;99290.38;;;19.31;38.07
27144;BME280;14672;50.250;8.312;2023-04-19T11:37:55;99288.09;;;19.15;38.02
27144;BME280;14672;50.250;8.312;2023-04-19T11:40:24;99287.38;;;19.20;38.80
27144;BME280;14672;50.250;8.312;2023-04-19T11:43:01;99288.66;;;19.19;37.79
27144;BME280;14672;50.250;8.312;2023-04-19T11:45:32;99286.75;;;19.36;37.89
27144;BME280;14672;50.250;8.312;2023-04-19T11:47:59;99277.84;;;19.60;38.08
27144;BME280;14672;50.250;8.312;2023-04-19T11:50:41;99286.31;;;19.43;38.03
27144;BME280;14672;50.250;8.312;2023-04-19T11:53:22;99271.50;;;19.56;36.43
27144;BME280;14672;50.250;8.312;2023-04-19T11:58:32;99261.91;;;20.01;35.57
27144;BME280;14672;50.250;8.312;2023-04-19T12:01:13;99253.38;;;20.18;34.94
27144;BME280;14672;50.250;8.312;2023-04-19T12:03:53;99241.41;;;20.36;34.81
27144;BME280;14672;50.250;8.312;2023-04-19T12:06:29;99235.19;;;20.49;34.30
27144;BME280;14672;50.250;8.312;2023-04-19T12:08:58;99241.47;;;20.47;33.83
27144;BME280;14672;50.250;8.312;2023-04-19T12:11:43;99250.47;;;20.66;34.23
27144;BME280;14672;50.250;8.312;2023-04-19T12:14:15;99247.31;;;20.64;34.32
27144;BME280;14672;50.250;8.312;2023-04-19T12:16:41;99239.69;;;20.61;33.11
27144;BME280;14672;50.250;8.312;2023-04-19T12:21:38;99236.63;;;20.81;32.98
27144;BME280;14672;50.250;8.312;2023-04-19T12:24:05;99228.28;;;21.05;33.10
27144;BME280;14672;50.250;8.312;2023-04-19T12:26:31;99227.53;;;21.16;31.80
27144;BME280;14672;50.250;8.312;2023-04-19T12:28:59;99216.75;;;21.17;31.91
27144;BME280;14672;50.250;8.312;2023-04-19T12:31:25;99216.97;;;20.96;32.04
27144;BME280;14672;50.250;8.312;2023-04-19T12:33:52;99219.91;;;21.35;32.22
27144;BME280;14672;50.250;8.312;2023-04-19T12:36:18;99217.81;;;21.30;31.69
27144;BME280;14672;50.250;8.312;2023-04-19T12:38:44;99208.88;;;21.73;32.11
27144;BME280;14672;50.250;8.312;2023-04-19T12:41:10;99208.63;;;21.65;30.42
27144;BME280;14672;50.250;8.312;2023-04-19T12:43:35;99206.53;;;21.32;28.73
27144;BME280;14672;50.250;8.312;2023-04-19T12:46:01;99202.84;;;21.54;29.64
27144;BME280;14672;50.250;8.312;2023-04-19T12:48:27;99204.91;;;21.87;29.55
27144;BME280;14672;50.250;8.312;2023-04-19T12:50:54;99205.19;;;21.94;30.39
27144;BME280;14672;50.250;8.312;2023-04-19T12:53:20;99202.28;;;22.00;29.52
27144;BME280;14672;50.250;8.312;2023-04-19T12:55:47;99202.53;;;22.13;29.74
27144;BME280;14672;50.250;8.312;2023-04-19T12:58:15;99195.69;;;22.11;29.09
27144;BME280;14672;50.250;8.312;2023-04-19T13:00:42;99189.88;;;22.16;28.70
27144;BME280;14672;50.250;8.312;2023-04-19T13:03:08;99180.69;;;22.12;28.33
27144;BME280;14672;50.250;8.312;2023-04-19T13:05:34;99188.06;;;22.13;28.24
27144;BME280;14672;50.250;8.312;2023-04-19T13:08:00;99189.59;;;22.14;29.11
27144;BME280;14672;50.250;8.312;2023-04-19T13:10:26;99197.41;;;22.41;29.11
27144;BME280;14672;50.250;8.312;2023-04-19T13:12:51;99183.94;;;22.49;28.51
27144;BME280;14672;50.250;8.312;2023-04-19T13:15:18;99177.13;;;22.41;27.56
27144;BME280;14672;50.250;8.312;2023-04-19T13:17:44;99178.16;;;22.49;27.63